createdAt,value
2024-02-11T00:04:25.528Z,17.25
2024-02-11T00:09:30.935Z,18.13
2024-02-11T00:14:34.786Z,17.77
2024-02-11T00:19:39.601Z,18.48
2024-02-11T00:24:45.112Z,20.20
2024-02-11T00:29:49.066Z,16.33
2024-02-11T00:34:53.193Z,15.18
2024-02-11T00:39:58.857Z,18.80
2024-02-11T00:45:02.994Z,17.15
2024-02-11T00:50:08.044Z,16.33
2024-02-11T00:55:15.317Z,16.05
2024-02-11T01:00:19.933Z,17.02
2024-02-11T01:05:24.699Z,15.95
2024-02-11T01:10:32.775Z,14.25
2024-02-11T01:15:37.710Z,15.38
2024-02-11T01:20:43.702Z,15.77
2024-02-11T01:25:48.985Z,17.95
2024-02-11T01:30:53.264Z,18.88
2024-02-11T01:35:57.193Z,14.93
2024-02-11T01:41:02.345Z,15.63
2024-02-11T01:46:07.551Z,15.90
2024-02-11T01:51:11.995Z,18.77
2024-02-11T01:56:22.098Z,14.55
2024-02-11T02:01:29.104Z,17.10
2024-02-11T02:06:33.393Z,18.55
2024-02-11T02:11:40.035Z,17.23
2024-02-11T02:16:44.644Z,17.85
2024-02-11T02:21:52.509Z,14.82
2024-02-11T02:26:56.548Z,18.38
2024-02-11T02:32:00.767Z,16.75
2024-02-11T02:37:07.724Z,13.68
2024-02-11T02:42:12.638Z,14.23
2024-02-11T02:47:16.671Z,18.08
2024-02-11T02:52:22.228Z,15.48
2024-02-11T02:57:26.540Z,19.17
2024-02-11T03:02:31.526Z,16.00
2024-02-11T03:07:40.533Z,18.77
2024-02-11T03:12:44.713Z,17.42
2024-02-11T03:17:49.589Z,15.90
2024-02-11T03:22:55.042Z,15.77
2024-02-11T03:27:59.076Z,15.10
2024-02-11T03:33:02.875Z,15.25
2024-02-11T03:38:09.323Z,14.90
2024-02-11T03:43:14.640Z,15.43
2024-02-11T03:48:20.407Z,17.00
2024-02-11T03:53:25.909Z,11.88
2024-02-11T03:58:29.991Z,13.38
2024-02-11T04:03:35.313Z,16.23
2024-02-11T04:08:43.317Z,13.40
2024-02-11T04:13:47.391Z,14.55
2024-02-11T04:18:51.522Z,12.85
2024-02-11T04:23:56.929Z,13.77
2024-02-11T04:29:01.960Z,15.65
2024-02-11T04:34:06.773Z,13.85
2024-02-11T04:39:12.109Z,12.65
2024-02-11T04:44:16.846Z,12.27
2024-02-11T04:49:23.089Z,11.40
2024-02-11T04:54:28.546Z,12.98
2024-02-11T04:59:33.860Z,12.02
2024-02-11T05:04:38.125Z,11.98
2024-02-11T05:09:47.158Z,10.73
2024-02-11T05:14:52.448Z,13.40
2024-02-11T05:19:56.954Z,12.82
2024-02-11T05:25:02.768Z,11.15
2024-02-11T05:30:10.862Z,11.48
2024-02-11T05:35:14.941Z,11.70
2024-02-11T05:40:20.998Z,11.10
2024-02-11T05:45:26.058Z,12.82
2024-02-11T05:50:30.499Z,12.07
2024-02-11T05:55:37.213Z,11.57
2024-02-11T06:00:45.023Z,10.15
2024-02-11T06:05:50.620Z,10.23
2024-02-11T06:10:56.022Z,11.00
2024-02-11T06:15:59.965Z,12.40
2024-02-11T06:21:03.817Z,12.23
2024-02-11T06:26:09.077Z,10.65
2024-02-11T06:31:14.599Z,10.20
2024-02-11T06:36:19.044Z,11.15
2024-02-11T06:41:24.265Z,8.98
2024-02-11T06:46:28.540Z,12.63
2024-02-11T06:51:33.039Z,16.73
2024-02-11T06:56:38.834Z,7.97
2024-02-11T07:01:43.930Z,10.90
2024-02-11T07:06:48.207Z,12.77
2024-02-11T07:11:54.014Z,6.45
2024-02-11T07:16:59.551Z,10.98
2024-02-11T07:22:04.907Z,10.52
2024-02-11T07:27:15.457Z,14.85
2024-02-11T07:32:20.412Z,15.48
2024-02-11T07:37:24.500Z,13.38
2024-02-11T07:42:31.302Z,15.30
2024-02-11T07:47:35.608Z,12.05
2024-02-11T07:52:39.670Z,9.98
2024-02-11T07:57:47.783Z,11.88
2024-02-11T08:02:53.848Z,11.02
2024-02-11T08:07:57.934Z,8.05
2024-02-11T08:13:09.234Z,8.13
2024-02-11T08:18:13.544Z,7.95
2024-02-11T08:23:17.788Z,7.32
2024-02-11T08:28:23.137Z,4.45
2024-02-11T08:33:27.320Z,2.90
2024-02-11T08:38:32.446Z,2.00
2024-02-11T08:43:37.665Z,2.10
2024-02-11T08:48:41.768Z,1.52
2024-02-11T08:53:47.054Z,0.85
2024-02-11T08:58:54.428Z,1.13
2024-02-11T09:04:01.094Z,0.82
2024-02-11T09:09:07.033Z,0.20
2024-02-11T09:14:12.519Z,0.40
2024-02-11T09:19:17.314Z,0.50
2024-02-11T09:24:21.401Z,0.70
2024-02-11T09:29:28.172Z,0.50
2024-02-11T09:34:32.712Z,0.30
2024-02-11T09:39:36.510Z,0.20
2024-02-11T09:44:44.397Z,0.10
2024-02-11T09:49:53.077Z,0.30
2024-02-11T09:54:57.182Z,0.40
2024-02-11T10:00:02.557Z,0.70
2024-02-11T10:05:13.132Z,1.20
2024-02-11T10:10:18.432Z,1.23
2024-02-11T10:15:26.887Z,1.33
2024-02-11T10:20:31.012Z,0.55
2024-02-11T10:25:35.486Z,3.33
2024-02-11T10:30:40.692Z,1.23
2024-02-11T10:35:44.783Z,0.47
2024-02-11T10:40:49.469Z,1.10
2024-02-11T10:45:55.223Z,1.35
2024-02-11T10:51:10.952Z,2.88
2024-02-11T10:56:17.213Z,2.80
2024-02-11T11:01:23.334Z,1.88
2024-02-11T11:06:29.073Z,2.20
2024-02-11T11:11:33.141Z,3.05
2024-02-11T11:16:42.448Z,2.40
2024-02-11T11:21:53.576Z,3.10
2024-02-11T11:26:59.139Z,2.33
2024-02-11T11:32:10.620Z,2.10
2024-02-11T11:37:16.887Z,1.67
2024-02-11T11:42:21.040Z,3.42
2024-02-11T11:47:27.135Z,1.70
2024-02-11T11:52:31.555Z,2.13
2024-02-11T11:57:35.924Z,2.10
2024-02-11T12:02:41.641Z,1.70
2024-02-11T12:07:45.885Z,1.65
2024-02-11T12:12:51.075Z,2.65
2024-02-11T12:18:01.799Z,2.55
2024-02-11T12:23:06.445Z,2.75
2024-02-11T12:28:10.546Z,3.13
2024-02-11T12:33:17.750Z,2.50
2024-02-11T12:38:22.554Z,2.75
2024-02-11T12:43:26.920Z,2.90
2024-02-11T12:48:32.417Z,5.28
2024-02-11T12:53:38.991Z,3.30
2024-02-11T12:58:48.324Z,2.50
2024-02-11T13:03:53.914Z,7.47
2024-02-11T13:08:58.040Z,5.30
2024-02-11T13:14:02.157Z,6.15
2024-02-11T13:19:07.687Z,4.18
2024-02-11T13:24:11.851Z,5.80
2024-02-11T13:29:15.984Z,6.70
2024-02-11T13:34:21.637Z,4.30
2024-02-11T13:39:27.346Z,4.60
2024-02-11T13:44:31.534Z,2.75
2024-02-11T13:49:37.232Z,4.13
2024-02-11T13:54:41.635Z,5.20
2024-02-11T13:59:45.682Z,3.92
2024-02-11T14:04:51.049Z,4.05
2024-02-11T14:09:56.702Z,3.05
2024-02-11T14:15:00.735Z,4.78
2024-02-11T14:20:11.954Z,3.47
2024-02-11T14:25:17.667Z,3.63
2024-02-11T14:30:22.593Z,9.02
2024-02-11T14:35:28.062Z,7.15
2024-02-11T14:40:32.401Z,3.15
2024-02-11T14:45:37.328Z,7.20
2024-02-11T14:50:42.568Z,5.15
2024-02-11T14:55:47.115Z,6.45
2024-02-11T15:00:51.237Z,10.85
2024-02-11T15:05:56.816Z,6.75
2024-02-11T15:11:00.902Z,6.45
2024-02-11T15:16:06.981Z,6.60
2024-02-11T15:21:12.558Z,8.00
2024-02-11T15:26:18.103Z,4.35
2024-02-11T15:31:22.200Z,9.73
2024-02-11T15:36:27.618Z,11.10
2024-02-11T15:41:31.901Z,7.32
2024-02-11T15:46:40.198Z,8.23
2024-02-11T15:51:48.870Z,2.97
2024-02-11T15:56:52.950Z,10.20
2024-02-11T16:01:57.331Z,12.35
2024-02-11T16:07:04.118Z,9.00
2024-02-11T16:12:09.905Z,6.65
2024-02-11T16:17:14.055Z,5.00
2024-02-11T16:22:20.565Z,11.05
2024-02-11T16:27:24.653Z,7.30
2024-02-11T16:32:28.852Z,4.03
2024-02-11T16:37:34.661Z,6.13
2024-02-11T16:42:38.712Z,5.75
2024-02-11T16:47:42.682Z,7.20
2024-02-11T16:52:49.279Z,10.48
2024-02-11T16:57:53.449Z,3.97
2024-02-11T17:03:00.109Z,8.82
2024-02-11T17:08:05.730Z,4.10
2024-02-11T17:13:12.146Z,4.97
2024-02-11T17:18:18.315Z,2.78
2024-02-11T17:23:25.380Z,5.18
2024-02-11T17:28:30.992Z,7.32
2024-02-11T17:33:37.488Z,7.15
2024-02-11T17:38:44.053Z,5.75
2024-02-11T17:43:48.482Z,3.45
2024-02-11T17:48:54.550Z,6.22
2024-02-11T17:54:01.460Z,6.63
2024-02-11T17:59:09.860Z,8.52
2024-02-11T18:04:17.020Z,13.02
2024-02-11T18:09:22.415Z,10.57
2024-02-11T18:14:26.389Z,4.20
2024-02-11T18:19:31.290Z,4.78
2024-02-11T18:24:37.788Z,6.97
2024-02-11T18:29:43.508Z,5.05
2024-02-11T18:34:49.013Z,5.20
2024-02-11T18:39:55.334Z,6.63
2024-02-11T18:44:59.391Z,5.40
2024-02-11T18:50:04.364Z,6.82
2024-02-11T18:55:11.720Z,6.18
2024-02-11T19:00:18.077Z,7.50
2024-02-11T19:05:24.261Z,7.60
2024-02-11T19:10:30.875Z,6.70
2024-02-11T19:15:35.641Z,15.05
2024-02-11T19:20:40.530Z,11.20
2024-02-11T19:25:48.172Z,14.90
2024-02-11T19:30:51.991Z,12.77
2024-02-11T19:36:15.642Z,19.58
2024-02-11T19:41:23.057Z,12.60
2024-02-11T19:46:28.346Z,7.72
2024-02-11T19:51:32.441Z,9.00
2024-02-11T19:56:38.065Z,12.15
2024-02-11T20:01:41.938Z,8.68
2024-02-11T20:06:46.216Z,8.15
2024-02-11T20:11:51.617Z,6.80
2024-02-11T20:16:55.895Z,9.77
2024-02-11T20:22:00.128Z,7.47
2024-02-11T20:27:05.740Z,9.63
2024-02-11T20:32:10.732Z,7.93
2024-02-11T20:37:14.859Z,7.28
2024-02-11T20:42:22.315Z,3.50
2024-02-11T20:47:31.363Z,3.65
2024-02-11T20:52:36.820Z,4.45
2024-02-11T20:57:43.846Z,3.78
2024-02-11T21:02:48.253Z,4.95
2024-02-11T21:07:54.640Z,5.70
2024-02-11T21:13:01.387Z,6.38
2024-02-11T21:18:06.271Z,2.28
2024-02-11T21:23:10.904Z,5.20
2024-02-11T21:28:17.105Z,7.57
2024-02-11T21:33:21.306Z,3.63
2024-02-11T21:38:26.174Z,6.63
2024-02-11T21:43:31.647Z,6.50
2024-02-11T21:48:36.333Z,5.65
2024-02-11T21:53:41.093Z,6.80
2024-02-11T21:58:46.487Z,4.35
2024-02-11T22:03:50.940Z,12.95
2024-02-11T22:08:54.703Z,4.18
2024-02-11T22:14:00.210Z,4.38
2024-02-11T22:19:04.553Z,2.47
2024-02-11T22:24:10.156Z,4.53
2024-02-11T22:29:15.399Z,4.68
2024-02-11T22:34:21.018Z,3.45
2024-02-11T22:39:25.128Z,3.47
2024-02-11T22:44:30.793Z,3.22
2024-02-11T22:49:34.961Z,3.58
2024-02-11T22:54:38.903Z,1.33
2024-02-11T22:59:45.328Z,3.08
2024-02-11T23:04:49.359Z,2.60
2024-02-11T23:09:53.387Z,1.23
2024-02-11T23:14:58.921Z,6.50
2024-02-11T23:20:07.795Z,1.85
2024-02-11T23:25:12.349Z,3.35
2024-02-11T23:30:18.096Z,1.83
2024-02-11T23:35:22.383Z,1.48
2024-02-11T23:40:26.431Z,4.75
2024-02-11T23:45:31.823Z,1.48
2024-02-11T23:50:35.940Z,2.00
2024-02-11T23:55:40.119Z,2.80
